sensor_id;sensor_type;location;lat;lon;timestamp;pressure;altitude;pressure_sealevel;temperature;humidity
69173;BME280;56280;49.662;8.408;2024-02-26T00:02:04;98802.47;;;8.03;100.00
69173;BME280;56280;49.662;8.408;2024-02-26T00:04:29;98800.63;;;7.86;100.00
69173;BME280;56280;49.662;8.408;2024-02-26T00:06:54;98791.38;;;8.18;100.00
69173;BME280;56280;49.662;8.408;2024-02-26T00:09:21;98815.50;;;8.33;100.00
69173;BME280;56280;49.662;8.408;2024-02-26T00:11:46;98796.16;;;7.87;100.00
69173;BME280;56280;49.662;8.408;2024-02-26T00:14:11;98808.22;;;7.99;100.00
69173;BME280;56280;49.662;8.408;2024-02-26T00:16:40;98786.47;;;7.77;100.00
69173;BME280;56280;49.662;8.408;2024-02-26T00:19:05;98786.34;;;7.97;100.00
69173;BME280;56280;49.662;8.408;2024-02-26T00:21:30;98789.13;;;7.77;100.00
69173;BME280;56280;49.662;8.408;2024-02-26T00:23:55;98790.34;;;7.83;100.00
69173;BME280;56280;49.662;8.408;2024-02-26T00:26:20;98718.91;;;7.47;100.00
69173;BME280;56280;49.662;8.408;2024-02-26T00:28:46;98787.44;;;8.04;100.00
69173;BME280;56280;49.662;8.408;2024-02-26T00:31:11;98767.38;;;7.83;100.00
69173;BME280;56280;49.662;8.408;2024-02-26T00:33:36;98773.34;;;7.02;100.00
69173;BME280;56280;49.662;8.408;2024-02-26T00:36:02;98763.09;;;6.89;100.00
69173;BME280;56280;49.662;8.408;2024-02-26T00:38:27;98769.00;;;7.39;100.00
69173;BME280;56280;49.662;8.408;2024-02-26T00:40:52;98794.19;;;7.89;100.00
69173;BME280;56280;49.662;8.408;2024-02-26T00:43:18;98793.31;;;8.16;100.00
69173;BME280;56280;49.662;8.408;2024-02-26T00:45:43;98793.66;;;8.31;100.00
69173;BME280;56280;49.662;8.408;2024-02-26T00:48:08;98782.91;;;8.14;100.00
69173;BME280;56280;49.662;8.408;2024-02-26T00:50:34;98785.47;;;8.24;100.00
69173;BME280;56280;49.662;8.408;2024-02-26T00:53:00;98785.25;;;8.35;100.00
69173;BME280;56280;49.662;8.408;2024-02-26T00:55:25;98809.31;;;8.60;100.00
69173;BME280;56280;49.662;8.408;2024-02-26T00:57:51;98721.91;;;8.16;100.00
69173;BME280;56280;49.662;8.408;2024-02-26T01:00:16;98796.97;;;8.69;100.00
69173;BME280;56280;49.662;8.408;2024-02-26T01:02:42;98817.59;;;8.83;100.00
69173;BME280;56280;49.662;8.408;2024-02-26T01:05:08;98811.31;;;8.84;100.00
69173;BME280;56280;49.662;8.408;2024-02-26T01:07:36;98801.03;;;8.81;100.00
69173;BME280;56280;49.662;8.408;2024-02-26T01:10:02;98780.41;;;8.67;100.00
69173;BME280;56280;49.662;8.408;2024-02-26T01:12:27;98819.38;;;8.56;100.00
69173;BME280;56280;49.662;8.408;2024-02-26T01:14:53;98807.66;;;8.59;100.00
69173;BME280;56280;49.662;8.408;2024-02-26T01:17:18;98811.03;;;8.51;100.00
69173;BME280;56280;49.662;8.408;2024-02-26T01:19:43;98823.25;;;8.44;100.00
69173;BME280;56280;49.662;8.408;2024-02-26T01:22:09;98812.34;;;8.47;100.00
69173;BME280;56280;49.662;8.408;2024-02-26T01:24:34;98817.63;;;8.65;100.00
69173;BME280;56280;49.662;8.408;2024-02-26T01:27:00;98801.97;;;8.72;100.00
69173;BME280;56280;49.662;8.408;2024-02-26T01:29:25;98814.13;;;8.83;100.00
69173;BME280;56280;49.662;8.408;2024-02-26T01:31:50;98777.25;;;8.63;100.00
69173;BME280;56280;49.662;8.408;2024-02-26T01:34:15;98788.25;;;8.76;100.00
69173;BME280;56280;49.662;8.408;2024-02-26T01:36:43;98836.09;;;9.01;100.00
69173;BME280;56280;49.662;8.408;2024-02-26T01:39:08;98825.34;;;9.03;100.00
69173;BME280;56280;49.662;8.408;2024-02-26T01:41:36;98831.56;;;9.11;100.00
69173;BME280;56280;49.662;8.408;2024-02-26T01:44:02;98843.44;;;9.07;100.00
69173;BME280;56280;49.662;8.408;2024-02-26T01:46:28;98824.53;;;9.02;100.00
69173;BME280;56280;49.662;8.408;2024-02-26T01:48:53;98825.34;;;9.03;100.00
69173;BME280;56280;49.662;8.408;2024-02-26T01:51:19;98846.22;;;9.06;100.00
69173;BME280;56280;49.662;8.408;2024-02-26T01:53:45;98824.31;;;8.96;100.00
69173;BME280;56280;49.662;8.408;2024-02-26T01:56:11;98830.44;;;8.96;100.00
69173;BME280;56280;49.662;8.408;2024-02-26T01:58:37;98842.91;;;9.04;100.00
69173;BME280;56280;49.662;8.408;2024-02-26T02:01:03;98840.78;;;9.07;100.00
69173;BME280;56280;49.662;8.408;2024-02-26T02:03:29;98845.25;;;9.07;100.00
69173;BME280;56280;49.662;8.408;2024-02-26T02:05:54;98866.03;;;9.20;100.00
69173;BME280;56280;49.662;8.408;2024-02-26T02:08:20;98863.69;;;9.17;100.00
69173;BME280;56280;49.662;8.408;2024-02-26T02:10:46;98854.38;;;9.12;100.00
69173;BME280;56280;49.662;8.408;2024-02-26T02:13:14;98847.81;;;9.17;100.00
69173;BME280;56280;49.662;8.408;2024-02-26T02:15:39;98858.91;;;9.20;100.00
69173;BME280;56280;49.662;8.408;2024-02-26T02:18:05;98840.81;;;9.16;100.00
69173;BME280;56280;49.662;8.408;2024-02-26T02:20:34;98852.63;;;9.21;100.00
69173;BME280;56280;49.662;8.408;2024-02-26T02:23:00;98847.03;;;9.24;100.00
69173;BME280;56280;49.662;8.408;2024-02-26T02:25:25;98837.63;;;9.04;100.00
69173;BME280;56280;49.662;8.408;2024-02-26T02:27:51;98840.06;;;8.97;100.00
69173;BME280;56280;49.662;8.408;2024-02-26T02:30:18;98846.69;;;9.01;100.00
69173;BME280;56280;49.662;8.408;2024-02-26T02:32:43;98841.84;;;8.97;100.00
69173;BME280;56280;49.662;8.408;2024-02-26T02:35:09;98870.03;;;9.24;100.00
69173;BME280;56280;49.662;8.408;2024-02-26T02:37:35;98852.91;;;9.10;100.00
69173;BME280;56280;49.662;8.408;2024-02-26T02:40:00;98872.16;;;9.20;100.00
69173;BME280;56280;49.662;8.408;2024-02-26T02:42:26;98859.13;;;9.01;100.00
69173;BME280;56280;49.662;8.408;2024-02-26T02:44:51;98875.53;;;9.04;100.00
69173;BME280;56280;49.662;8.408;2024-02-26T02:47:16;98874.69;;;9.04;100.00
69173;BME280;56280;49.662;8.408;2024-02-26T02:49:41;98867.53;;;8.96;100.00
69173;BME280;56280;49.662;8.408;2024-02-26T02:52:07;98855.75;;;8.90;100.00
69173;BME280;56280;49.662;8.408;2024-02-26T02:54:32;98847.09;;;8.88;100.00
69173;BME280;56280;49.662;8.408;2024-02-26T02:56:58;98879.78;;;8.97;100.00
69173;BME280;56280;49.662;8.408;2024-02-26T02:59:23;98851.41;;;8.89;100.00
69173;BME280;56280;49.662;8.408;2024-02-26T03:01:48;98862.84;;;8.90;100.00
69173;BME280;56280;49.662;8.408;2024-02-26T03:04:14;98872.09;;;8.86;100.00
69173;BME280;56280;49.662;8.408;2024-02-26T03:06:39;98856.38;;;8.66;100.00
69173;BME280;56280;49.662;8.408;2024-02-26T03:09:05;98868.91;;;8.64;100.00
69173;BME280;56280;49.662;8.408;2024-02-26T03:11:30;98869.81;;;8.73;100.00
69173;BME280;56280;49.662;8.408;2024-02-26T03:13:55;98853.31;;;8.61;100.00
69173;BME280;56280;49.662;8.408;2024-02-26T03:16:20;98887.06;;;8.77;100.00
69173;BME280;56280;49.662;8.408;2024-02-26T03:18:46;98820.03;;;8.40;100.00
69173;BME280;56280;49.662;8.408;2024-02-26T03:21:11;98879.25;;;8.75;100.00
69173;BME280;56280;49.662;8.408;2024-02-26T03:23:37;98883.13;;;8.81;100.00
69173;BME280;56280;49.662;8.408;2024-02-26T03:26:05;98872.91;;;8.68;100.00
69173;BME280;56280;49.662;8.408;2024-02-26T03:28:31;98884.69;;;8.74;100.00
69173;BME280;56280;49.662;8.408;2024-02-26T03:30:58;98826.00;;;8.25;100.00
69173;BME280;56280;49.662;8.408;2024-02-26T03:33:24;98868.06;;;8.64;100.00
69173;BME280;56280;49.662;8.408;2024-02-26T03:35:49;98860.97;;;8.64;100.00
69173;BME280;56280;49.662;8.408;2024-02-26T03:38:14;98880.47;;;8.81;100.00
69173;BME280;56280;49.662;8.408;2024-02-26T03:40:40;98869.59;;;8.66;100.00
69173;BME280;56280;49.662;8.408;2024-02-26T03:43:05;98874.97;;;8.74;100.00
69173;BME280;56280;49.662;8.408;2024-02-26T03:45:32;98805.44;;;8.36;100.00
69173;BME280;56280;49.662;8.408;2024-02-26T03:47:58;98857.41;;;8.73;100.00
69173;BME280;56280;49.662;8.408;2024-02-26T03:50:23;98882.13;;;8.82;100.00
69173;BME280;56280;49.662;8.408;2024-02-26T03:52:48;98874.97;;;8.74;100.00
69173;BME280;56280;49.662;8.408;2024-02-26T03:55:14;98883.50;;;8.68;100.00
69173;BME280;56280;49.662;8.408;2024-02-26T03:57:39;98872.25;;;8.66;100.00
69173;BME280;56280;49.662;8.408;2024-02-26T04:00:06;98866.41;;;8.63;100.00
69173;BME280;56280;49.662;8.408;2024-02-26T04:02:31;98872.69;;;8.62;100.00
69173;BME280;56280;49.662;8.408;2024-02-26T04:04:57;98870.06;;;8.62;100.00
69173;BME280;56280;49.662;8.408;2024-02-26T04:07:22;98849.81;;;8.43;100.00
69173;BME280;56280;49.662;8.408;2024-02-26T04:09:47;98798.53;;;8.08;100.00
69173;BME280;56280;49.662;8.408;2024-02-26T04:12:12;98869.50;;;8.58;100.00
69173;BME280;56280;49.662;8.408;2024-02-26T04:14:41;98835.91;;;8.40;100.00
69173;BME280;56280;49.662;8.408;2024-02-26T04:17:06;98854.25;;;8.52;100.00
69173;BME280;56280;49.662;8.408;2024-02-26T04:19:31;98831.91;;;8.36;100.00
69173;BME280;56280;49.662;8.408;2024-02-26T04:21:57;98810.44;;;8.21;100.00
69173;BME280;56280;49.662;8.408;2024-02-26T04:24:22;98863.34;;;8.39;100.00
69173;BME280;56280;49.662;8.408;2024-02-26T04:26:47;98853.75;;;8.38;100.00
69173;BME280;56280;49.662;8.408;2024-02-26T04:29:15;98851.59;;;8.24;100.00
69173;BME280;56280;49.662;8.408;2024-02-26T04:31:40;98868.75;;;8.48;100.00
69173;BME280;56280;49.662;8.408;2024-02-26T04:34:07;98842.09;;;8.31;100.00
69173;BME280;56280;49.662;8.408;2024-02-26T04:36:32;98832.41;;;8.22;100.00
69173;BME280;56280;49.662;8.408;2024-02-26T04:38:58;98852.34;;;8.44;100.00
69173;BME280;56280;49.662;8.408;2024-02-26T04:41:23;98857.50;;;8.64;100.00
69173;BME280;56280;49.662;8.408;2024-02-26T04:43:48;98833.22;;;8.50;100.00
69173;BME280;56280;49.662;8.408;2024-02-26T04:46:14;98852.03;;;8.65;100.00
69173;BME280;56280;49.662;8.408;2024-02-26T04:48:39;98853.94;;;8.55;100.00
69173;BME280;56280;49.662;8.408;2024-02-26T04:51:06;98859.47;;;8.62;100.00
69173;BME280;56280;49.662;8.408;2024-02-26T04:53:32;98813.97;;;8.30;100.00
69173;BME280;56280;49.662;8.408;2024-02-26T04:55:57;98840.88;;;8.53;100.00
69173;BME280;56280;49.662;8.408;2024-02-26T04:58:22;98822.28;;;8.35;100.00
69173;BME280;56280;49.662;8.408;2024-02-26T05:00:47;98843.09;;;8.48;100.00
69173;BME280;56280;49.662;8.408;2024-02-26T05:03:13;98852.28;;;8.54;100.00
69173;BME280;56280;49.662;8.408;2024-02-26T05:05:40;98844.69;;;8.59;100.00
69173;BME280;56280;49.662;8.408;2024-02-26T05:08:05;98854.78;;;8.55;100.00
69173;BME280;56280;49.662;8.408;2024-02-26T05:10:32;98782.53;;;8.09;100.00
69173;BME280;56280;49.662;8.408;2024-02-26T05:12:57;98850.91;;;8.50;100.00
69173;BME280;56280;49.662;8.408;2024-02-26T05:15:23;98832.94;;;8.26;100.00
69173;BME280;56280;49.662;8.408;2024-02-26T05:17:48;98844.16;;;8.19;100.00
69173;BME280;56280;49.662;8.408;2024-02-26T05:20:13;98846.06;;;7.99;100.00
69173;BME280;56280;49.662;8.408;2024-02-26T05:22:39;98841.22;;;7.67;100.00
69173;BME280;56280;49.662;8.408;2024-02-26T05:25:04;98829.53;;;7.32;100.00
69173;BME280;56280;49.662;8.408;2024-02-26T05:27:29;98843.94;;;7.10;100.00
69173;BME280;56280;49.662;8.408;2024-02-26T05:29:55;98864.66;;;6.85;100.00
69173;BME280;56280;49.662;8.408;2024-02-26T05:32:20;98828.81;;;6.44;100.00
69173;BME280;56280;49.662;8.408;2024-02-26T05:34:45;98871.34;;;6.60;100.00
69173;BME280;56280;49.662;8.408;2024-02-26T05:37:11;98842.28;;;6.31;100.00
69173;BME280;56280;49.662;8.408;2024-02-26T05:39:36;98871.31;;;6.50;100.00
69173;BME280;56280;49.662;8.408;2024-02-26T05:42:02;98862.28;;;6.63;100.00
69173;BME280;56280;49.662;8.408;2024-02-26T05:44:27;98775.47;;;5.91;100.00
69173;BME280;56280;49.662;8.408;2024-02-26T05:46:52;98845.50;;;6.34;100.00
69173;BME280;56280;49.662;8.408;2024-02-26T05:49:18;98885.50;;;6.59;100.00
69173;BME280;56280;49.662;8.408;2024-02-26T05:51:43;98885.50;;;6.69;100.00
69173;BME280;56280;49.662;8.408;2024-02-26T05:54:09;98835.38;;;6.59;100.00
69173;BME280;56280;49.662;8.408;2024-02-26T05:56:35;98867.28;;;6.85;100.00
69173;BME280;56280;49.662;8.408;2024-02-26T05:59:00;98876.31;;;6.92;100.00
69173;BME280;56280;49.662;8.408;2024-02-26T06:01:26;98887.69;;;7.03;100.00
69173;BME280;56280;49.662;8.408;2024-02-26T06:03:51;98898.81;;;7.06;100.00
69173;BME280;56280;49.662;8.408;2024-02-26T06:06:17;98861.28;;;7.03;100.00
69173;BME280;56280;49.662;8.408;2024-02-26T06:08:43;98883.47;;;7.39;100.00
69173;BME280;56280;49.662;8.408;2024-02-26T06:11:08;98877.25;;;7.21;100.00
69173;BME280;56280;49.662;8.408;2024-02-26T06:13:34;98900.53;;;7.45;100.00
69173;BME280;56280;49.662;8.408;2024-02-26T06:15:59;98910.69;;;7.49;100.00
69173;BME280;56280;49.662;8.408;2024-02-26T06:18:25;98915.16;;;7.49;100.00
69173;BME280;56280;49.662;8.408;2024-02-26T06:20:50;98891.97;;;7.23;100.00
69173;BME280;56280;49.662;8.408;2024-02-26T06:23:15;98888.50;;;7.33;100.00
69173;BME280;56280;49.662;8.408;2024-02-26T06:25:41;98921.91;;;7.71;100.00
69173;BME280;56280;49.662;8.408;2024-02-26T06:28:07;98915.25;;;7.95;100.00
69173;BME280;56280;49.662;8.408;2024-02-26T06:30:32;98935.53;;;8.04;100.00
69173;BME280;56280;49.662;8.408;2024-02-26T06:32:58;98879.72;;;7.79;100.00
69173;BME280;56280;49.662;8.408;2024-02-26T06:35:23;98945.34;;;7.84;100.00
69173;BME280;56280;49.662;8.408;2024-02-26T06:37:48;98950.38;;;7.77;100.00
69173;BME280;56280;49.662;8.408;2024-02-26T06:40:17;98943.75;;;7.63;100.00
69173;BME280;56280;49.662;8.408;2024-02-26T06:42:42;98964.72;;;7.84;100.00
69173;BME280;56280;49.662;8.408;2024-02-26T06:45:09;98934.97;;;7.63;100.00
69173;BME280;56280;49.662;8.408;2024-02-26T06:47:34;98952.03;;;7.88;100.00
69173;BME280;56280;49.662;8.408;2024-02-26T06:50:00;98974.09;;;8.07;100.00
69173;BME280;56280;49.662;8.408;2024-02-26T06:52:26;98954.25;;;7.93;100.00
69173;BME280;56280;49.662;8.408;2024-02-26T06:54:51;98961.75;;;7.97;100.00
69173;BME280;56280;49.662;8.408;2024-02-26T06:57:21;98980.31;;;8.15;100.00
69173;BME280;56280;49.662;8.408;2024-02-26T06:59:47;98978.75;;;8.22;100.00
69173;BME280;56280;49.662;8.408;2024-02-26T07:02:13;98983.59;;;8.27;100.00
69173;BME280;56280;49.662;8.408;2024-02-26T07:04:39;98987.03;;;8.37;100.00
69173;BME280;56280;49.662;8.408;2024-02-26T07:07:04;98988.69;;;8.38;100.00
69173;BME280;56280;49.662;8.408;2024-02-26T07:09:29;98975.75;;;8.35;100.00
69173;BME280;56280;49.662;8.408;2024-02-26T07:11:55;98984.09;;;8.40;100.00
69173;BME280;56280;49.662;8.408;2024-02-26T07:14:20;98975.31;;;8.40;100.00
69173;BME280;56280;49.662;8.408;2024-02-26T07:16:45;98982.78;;;8.54;100.00
69173;BME280;56280;49.662;8.408;2024-02-26T07:19:11;98983.66;;;8.55;100.00
69173;BME280;56280;49.662;8.408;2024-02-26T07:21:36;98931.59;;;8.18;100.00
69173;BME280;56280;49.662;8.408;2024-02-26T07:24:02;98996.56;;;8.58;100.00
69173;BME280;56280;49.662;8.408;2024-02-26T07:26:27;98992.59;;;8.44;100.00
69173;BME280;56280;49.662;8.408;2024-02-26T07:28:54;98999.72;;;8.34;100.00
69173;BME280;56280;49.662;8.408;2024-02-26T07:31:20;98979.97;;;8.28;100.00
69173;BME280;56280;49.662;8.408;2024-02-26T07:33:45;98988.22;;;8.25;100.00
69173;BME280;56280;49.662;8.408;2024-02-26T07:36:11;98985.66;;;8.06;100.00
69173;BME280;56280;49.662;8.408;2024-02-26T07:38:36;98995.47;;;8.23;100.00
69173;BME280;56280;49.662;8.408;2024-02-26T07:41:02;98993.88;;;8.30;100.00
69173;BME280;56280;49.662;8.408;2024-02-26T07:43:28;98994.13;;;8.37;100.00
69173;BME280;56280;49.662;8.408;2024-02-26T07:45:53;98995.25;;;8.44;100.00
69173;BME280;56280;49.662;8.408;2024-02-26T07:48:19;98991.88;;;8.52;100.00
69173;BME280;56280;49.662;8.408;2024-02-26T07:50:44;98986.16;;;8.56;100.00
69173;BME280;56280;49.662;8.408;2024-02-26T07:53:09;99018.81;;;8.65;100.00
69173;BME280;56280;49.662;8.408;2024-02-26T07:55:35;98981.38;;;8.22;100.00
69173;BME280;56280;49.662;8.408;2024-02-26T07:58:00;99008.34;;;8.46;100.00
69173;BME280;56280;49.662;8.408;2024-02-26T08:00:26;99013.69;;;8.26;100.00
69173;BME280;56280;49.662;8.408;2024-02-26T08:02:51;99013.13;;;8.22;100.00
69173;BME280;56280;49.662;8.408;2024-02-26T08:05:16;99008.69;;;8.23;100.00
69173;BME280;56280;49.662;8.408;2024-02-26T08:07:53;98998.13;;;8.23;100.00
69173;BME280;56280;49.662;8.408;2024-02-26T08:10:20;99026.31;;;8.42;100.00
69173;BME280;56280;49.662;8.408;2024-02-26T08:12:45;99006.53;;;8.09;100.00
69173;BME280;56280;49.662;8.408;2024-02-26T08:15:10;99018.03;;;7.70;100.00
69173;BME280;56280;49.662;8.408;2024-02-26T08:17:36;99037.25;;;7.43;100.00
69173;BME280;56280;49.662;8.408;2024-02-26T08:20:04;99022.50;;;7.40;100.00
69173;BME280;56280;49.662;8.408;2024-02-26T08:22:29;99050.56;;;7.71;100.00
69173;BME280;56280;49.662;8.408;2024-02-26T08:24:55;99061.13;;;7.80;100.00
69173;BME280;56280;49.662;8.408;2024-02-26T08:27:20;99051.41;;;7.91;100.00
69173;BME280;56280;49.662;8.408;2024-02-26T08:29:45;99035.25;;;7.84;100.00
69173;BME280;56280;49.662;8.408;2024-02-26T08:32:10;99054.41;;;8.06;100.00
69173;BME280;56280;49.662;8.408;2024-02-26T08:34:38;99036.59;;;8.08;100.00
69173;BME280;56280;49.662;8.408;2024-02-26T08:37:05;98917.09;;;7.37;100.00
69173;BME280;56280;49.662;8.408;2024-02-26T08:39:31;99025.63;;;7.93;100.00
69173;BME280;56280;49.662;8.408;2024-02-26T08:41:56;99016.34;;;7.69;100.00
69173;BME280;56280;49.662;8.408;2024-02-26T08:44:21;99041.75;;;7.99;100.00
69173;BME280;56280;49.662;8.408;2024-02-26T08:46:49;99018.56;;;7.74;100.00
69173;BME280;56280;49.662;8.408;2024-02-26T08:49:17;99001.91;;;7.63;100.00
69173;BME280;56280;49.662;8.408;2024-02-26T08:51:42;99027.47;;;7.82;100.00
69173;BME280;56280;49.662;8.408;2024-02-26T08:54:09;98949.75;;;7.56;100.00
69173;BME280;56280;49.662;8.408;2024-02-26T08:56:34;98945.63;;;7.91;100.00
69173;BME280;56280;49.662;8.408;2024-02-26T08:59:02;98975.41;;;8.20;100.00
69173;BME280;56280;49.662;8.408;2024-02-26T09:01:29;98979.97;;;8.28;100.00
69173;BME280;56280;49.662;8.408;2024-02-26T09:03:54;99010.31;;;8.44;100.00
69173;BME280;56280;49.662;8.408;2024-02-26T09:06:21;99015.00;;;8.50;100.00
69173;BME280;56280;49.662;8.408;2024-02-26T09:08:46;98990.66;;;8.36;100.00
69173;BME280;56280;49.662;8.408;2024-02-26T09:11:12;99045.88;;;8.59;100.00
69173;BME280;56280;49.662;8.408;2024-02-26T09:13:40;99038.16;;;8.38;100.00
69173;BME280;56280;49.662;8.408;2024-02-26T09:16:11;99010.38;;;8.14;100.00
69173;BME280;56280;49.662;8.408;2024-02-26T09:18:36;98978.69;;;8.04;100.00
69173;BME280;56280;49.662;8.408;2024-02-26T09:21:05;98991.53;;;7.90;100.00
69173;BME280;56280;49.662;8.408;2024-02-26T09:23:33;98988.31;;;7.96;100.00
69173;BME280;56280;49.662;8.408;2024-02-26T09:26:00;99026.81;;;8.08;100.00
69173;BME280;56280;49.662;8.408;2024-02-26T09:28:25;99007.00;;;7.84;100.00
69173;BME280;56280;49.662;8.408;2024-02-26T09:30:50;99020.78;;;7.88;100.00
69173;BME280;56280;49.662;8.408;2024-02-26T09:33:16;99037.25;;;8.10;100.00
69173;BME280;56280;49.662;8.408;2024-02-26T09:35:44;99050.91;;;8.15;100.00
69173;BME280;56280;49.662;8.408;2024-02-26T09:38:10;99009.38;;;7.88;100.00
69173;BME280;56280;49.662;8.408;2024-02-26T09:40:35;99022.94;;;8.12;100.00
69173;BME280;56280;49.662;8.408;2024-02-26T09:43:04;99022.13;;;8.02;100.00
69173;BME280;56280;49.662;8.408;2024-02-26T09:45:30;99029.25;;;7.92;100.00
69173;BME280;56280;49.662;8.408;2024-02-26T09:47:57;99038.03;;;7.92;100.00
69173;BME280;56280;49.662;8.408;2024-02-26T09:50:24;99069.44;;;8.15;100.00
69173;BME280;56280;49.662;8.408;2024-02-26T09:52:49;99098.38;;;8.16;100.00
69173;BME280;56280;49.662;8.408;2024-02-26T09:55:15;99092.41;;;8.04;100.00
69173;BME280;56280;49.662;8.408;2024-02-26T09:57:48;99103.53;;;7.98;100.00
69173;BME280;56280;49.662;8.408;2024-02-26T10:00:18;99099.38;;;8.06;100.00
69173;BME280;56280;49.662;8.408;2024-02-26T10:02:47;99111.19;;;8.11;100.00
69173;BME280;56280;49.662;8.408;2024-02-26T10:05:15;99102.72;;;7.98;100.00
69173;BME280;56280;49.662;8.408;2024-02-26T10:07:44;99075.50;;;7.78;100.00
69173;BME280;56280;49.662;8.408;2024-02-26T10:10:09;99096.44;;;8.09;100.00
69173;BME280;56280;49.662;8.408;2024-02-26T10:12:34;99103.09;;;8.32;100.00
69173;BME280;56280;49.662;8.408;2024-02-26T10:14:59;99058.84;;;8.15;100.00
69173;BME280;56280;49.662;8.408;2024-02-26T10:17:26;99118.50;;;8.47;100.00
69173;BME280;56280;49.662;8.408;2024-02-26T10:19:51;99109.06;;;8.34;100.00
69173;BME280;56280;49.662;8.408;2024-02-26T10:22:22;99121.19;;;8.27;100.00
69173;BME280;56280;49.662;8.408;2024-02-26T10:24:47;99123.72;;;8.19;100.00
69173;BME280;56280;49.662;8.408;2024-02-26T10:27:13;99098.09;;;8.19;100.00
69173;BME280;56280;49.662;8.408;2024-02-26T10:29:39;99100.91;;;8.18;100.00
69173;BME280;56280;49.662;8.408;2024-02-26T10:32:05;99123.22;;;8.53;100.00
69173;BME280;56280;49.662;8.408;2024-02-26T10:34:31;99104.56;;;8.54;100.00
69173;BME280;56280;49.662;8.408;2024-02-26T10:36:56;99099.16;;;8.36;100.00
69173;BME280;56280;49.662;8.408;2024-02-26T10:39:25;99064.09;;;8.25;100.00
69173;BME280;56280;49.662;8.408;2024-02-26T10:41:50;99042.72;;;7.98;100.00
69173;BME280;56280;49.662;8.408;2024-02-26T10:44:18;99050.31;;;8.21;100.00
69173;BME280;56280;49.662;8.408;2024-02-26T10:46:46;99060.75;;;8.32;100.00
69173;BME280;56280;49.662;8.408;2024-02-26T10:49:15;99031.84;;;8.11;100.00
69173;BME280;56280;49.662;8.408;2024-02-26T10:51:57;99107.13;;;8.74;100.00
69173;BME280;56280;49.662;8.408;2024-02-26T10:54:25;99064.56;;;8.57;100.00
69173;BME280;56280;49.662;8.408;2024-02-26T10:56:51;99028.09;;;8.51;100.00
69173;BME280;56280;49.662;8.408;2024-02-26T10:59:25;99083.09;;;9.13;100.00
69173;BME280;56280;49.662;8.408;2024-02-26T11:01:51;99032.09;;;8.83;100.00
69173;BME280;56280;49.662;8.408;2024-02-26T11:04:21;99040.19;;;8.82;100.00
69173;BME280;56280;49.662;8.408;2024-02-26T11:06:49;99055.13;;;9.01;100.00
69173;BME280;56280;49.662;8.408;2024-02-26T11:09:19;99029.00;;;8.88;100.00
69173;BME280;56280;49.662;8.408;2024-02-26T11:11:47;99054.75;;;9.13;100.00
69173;BME280;56280;49.662;8.408;2024-02-26T11:14:14;99117.19;;;9.62;100.00
69173;BME280;56280;49.662;8.408;2024-02-26T11:16:40;99129.47;;;9.63;100.00
69173;BME280;56280;49.662;8.408;2024-02-26T11:19:09;99068.16;;;9.30;100.00
69173;BME280;56280;49.662;8.408;2024-02-26T11:21:36;99083.84;;;9.41;100.00
69173;BME280;56280;49.662;8.408;2024-02-26T11:24:08;99128.69;;;9.89;100.00
69173;BME280;56280;49.662;8.408;2024-02-26T11:26:40;99026.84;;;9.37;100.00
69173;BME280;56280;49.662;8.408;2024-02-26T11:29:12;98999.03;;;9.41;100.00
69173;BME280;56280;49.662;8.408;2024-02-26T11:31:39;99011.69;;;9.11;100.00
69173;BME280;56280;49.662;8.408;2024-02-26T11:34:08;99069.09;;;9.57;100.00
69173;BME280;56280;49.662;8.408;2024-02-26T11:36:39;99100.84;;;9.93;100.00
69173;BME280;56280;49.662;8.408;2024-02-26T11:39:20;99090.03;;;9.86;100.00
69173;BME280;56280;49.662;8.408;2024-02-26T11:41:46;99093.84;;;10.10;100.00
69173;BME280;56280;49.662;8.408;2024-02-26T11:44:39;99040.34;;;9.70;100.00
69173;BME280;56280;49.662;8.408;2024-02-26T11:47:35;99128.09;;;10.21;100.00
69173;BME280;56280;49.662;8.408;2024-02-26T11:50:34;99135.19;;;10.65;100.00
69173;BME280;56280;49.662;8.408;2024-02-26T11:53:30;99058.00;;;10.06;100.00
69173;BME280;56280;49.662;8.408;2024-02-26T11:58:44;99139.53;;;10.21;100.00
69173;BME280;56280;49.662;8.408;2024-02-26T12:01:36;99145.53;;;10.23;100.00
69173;BME280;56280;49.662;8.408;2024-02-26T12:04:02;99147.59;;;10.12;100.00
69173;BME280;56280;49.662;8.408;2024-02-26T12:06:27;99133.75;;;10.00;100.00
69173;BME280;56280;49.662;8.408;2024-02-26T12:08:54;99115.34;;;9.98;100.00
69173;BME280;56280;49.662;8.408;2024-02-26T12:11:20;99147.00;;;10.18;100.00
69173;BME280;56280;49.662;8.408;2024-02-26T12:13:47;99130.69;;;10.13;100.00
69173;BME280;56280;49.662;8.408;2024-02-26T12:16:43;99143.19;;;10.38;100.00
69173;BME280;56280;49.662;8.408;2024-02-26T12:19:10;99132.03;;;10.35;100.00
69173;BME280;56280;49.662;8.408;2024-02-26T12:21:37;99148.75;;;10.53;100.00
69173;BME280;56280;49.662;8.408;2024-02-26T12:24:12;99142.06;;;10.49;100.00
69173;BME280;56280;49.662;8.408;2024-02-26T12:26:38;99121.94;;;10.20;100.00
69173;BME280;56280;49.662;8.408;2024-02-26T12:29:04;99129.44;;;10.25;100.00
69173;BME280;56280;49.662;8.408;2024-02-26T12:31:31;99153.47;;;10.42;100.00
69173;BME280;56280;49.662;8.408;2024-02-26T12:33:56;99110.31;;;10.39;100.00
69173;BME280;56280;49.662;8.408;2024-02-26T12:36:22;99085.66;;;10.47;100.00
69173;BME280;56280;49.662;8.408;2024-02-26T12:38:48;99137.03;;;11.07;100.00
69173;BME280;56280;49.662;8.408;2024-02-26T12:41:15;99150.06;;;10.84;100.00
69173;BME280;56280;49.662;8.408;2024-02-26T12:43:41;99147.41;;;10.84;100.00
69173;BME280;56280;49.662;8.408;2024-02-26T12:46:06;99154.25;;;10.94;100.00
69173;BME280;56280;49.662;8.408;2024-02-26T12:48:31;99144.69;;;11.10;100.00
69173;BME280;56280;49.662;8.408;2024-02-26T12:50:57;99131.44;;;11.18;100.00
69173;BME280;56280;49.662;8.408;2024-02-26T12:53:22;99089.72;;;11.10;100.00
69173;BME280;56280;49.662;8.408;2024-02-26T12:55:48;99147.25;;;11.36;100.00
69173;BME280;56280;49.662;8.408;2024-02-26T12:58:14;99140.78;;;10.88;100.00
69173;BME280;56280;49.662;8.408;2024-02-26T13:00:40;99159.88;;;10.91;100.00